Ogden, IL (61859)

5:13 PM CDT on May 27, 2015 (GMT -0500)
Crestlake | | Change Station
CLOSE
Current Station
Personal Weather Station
Location: Saint Joseph, IL
Elevation: 678 ft
Nearby Weather Stations

Elev 678 ft 40.11 °N, 88.03 °W | Updated 11 seconds ago

Partly Cloudy
Partly Cloudy
83.0 °F
Feels Like 84 °F
N
6.5
Wind Variable Wind from West
Gusts 10.3 mph

Today
High -- | Low -- °F
--% Chance of Precip.
Yesterday
High -- | Low -- °F
Precip. -- in
5:27 AM 8:11 PM
Waxing Gibbous, 70% visible
Pressure 30.05 in
Visibility 10.0 miles
Clouds Scattered Clouds 4800 ft
Mostly Cloudy 6000 ft
Mostly Cloudy 7000 ft
Heat Index 84 °F
Dew Point 64 °F
Humidity 53%
Rainfall 0.02 in
Snow Depth Not available.
UV 2 out of 12
Pollen 9.40 out of 12
Air Quality Not available.
Flu Activity Sporadic
METAR KTIP 272155Z AUTO 28012G20KT 10SM SCT048 BKN060 BKN070 27/16 A3005 RMK AO2 T02690158

More Conditions Fewer Conditions

Pressure 30.05 in
Visibility 10.0 miles
Clouds Scattered Clouds 4800 ft
Mostly Cloudy 6000 ft
Mostly Cloudy 7000 ft
Heat Index 84 °F
Dew Point 64 °F
Humidity 53%
Rainfall 0.02 in
Snow Depth Not available.
UV 2 out of 12
Pollen 9.40 out of 12
Air Quality Not available.
Flu Activity Sporadic
METAR KTIP 272155Z AUTO 28012G20KT 10SM SCT048 BKN060 BKN070 27/16 A3005 RMK AO2 T02690158

More Conditions Fewer Conditions

10-Day Weather Forecast

Almanac

Astronomy

May. 27, 2015 Rise Set
Actual Time
Civil Twilight
Nautical Twilight
Astronomical Twilight
Moon
Length of Visible Light
Length of Day
Tomorrow will be .
, % of the Moon is Illuminated

Today's Extremes

State Highs State Lows

Community

WunderPhotos

Upload Photos

1,824,809 photos uploaded!

WunderBlogs® & News

Nearby

Air Quality

  Air Quality AQ Index Pollutant
Not available.

Snow Depth

Station Depth Elevation

Earthquake Activity

City Distance Mag. Time & Date
Minimum magnitude displayed is 2.5.

Coastal Water Temperatures

Place Temperature

Stations

Nearby Weather Stations

Station Location Temp. Windchill Dew Point Humidity Wind Precip. Elev Updated Type